Latest Coastal Weather Observations for Yarram Airport

IDV60701

Issued at 3:41 pm EST Thursday 30 May 2024 (issued every 10 minutes, with the page automatically refreshed every 10 minutes)

About coastal observations | Map of coastal stations | Coastal observations for VIC | Marine services | Other Formats
Station Details ID: 085151 Name: YARRAM AIRPORT Lat: -38.56 Lon: 146.75 Height: 17.9 m
Data from the previous 72 hours. | See also: Recent months at Yarram Airport
Date/Time
EST
Wind Sea
Height
m
Swell Vis
km
Cloud Weather Temp
°C
Press
MSL
hPa
Rain since
9am
mm
Dir  Spd
kts
Gust
kts
Height
m
Period
s
Dir
30/03:30pm N 10 13 - - - - - - - 18.7 1011.1 0.0
30/03:00pm NNE 13 17 - - - - - - - 18.7 1010.9 0.0
30/02:30pm NNE 8 11 - - - - - - - 17.1 1011.3 0.0
30/02:00pm NNE 9 9 - - - - - - - 17.2 1011.8 0.0
30/01:30pm NNE 9 12 - - - - - - - 18.4 1012.3 0.0
30/01:00pm N 16 22 - - - - - - - 20.3 1012.7 0.0
30/12:30pm N 14 21 - - - - - - - 20.4 1013.4 0.0
30/12:00pm N 13 17 - - - - - - - 20.4 1013.9 0.0
30/11:30am NE 7 9 - - - - - - - 19.7 1014.9 0.0
30/11:00am N 8 14 - - - - - - - 19.5 1015.8 0.0
30/10:30am N 10 15 - - - - - - - 20.1 1015.6 0.0
30/10:00am N 12 20 - - - - - - - 19.3 1015.5 0.0
30/09:30am N 11 19 - - - - - - - 19.4 1016.0 0.0
30/09:00am N 9 13 - - - - - - - 19.7 1016.5 0.0
30/08:30am N 9 13 - - - - - - - 18.2 1016.8 0.0
30/08:00am NNE 8 19 - - - - - - - 14.5 1016.7 0.0
30/07:50am N 8 15 - - - - - - - 15.5 1016.6 0.0
30/07:30am SSE 3 5 - - - - - - - 9.3 1016.9 0.0
30/07:00am E 6 8 - - - - - - - 10.5 1016.8 0.0
30/06:30am NE 10 14 - - - - - - - 9.7 1016.4 0.0
30/06:00am NE 5 7 - - - - - - - 6.3 1016.6 0.0
30/05:30am NE 7 9 - - - - - - - 6.7 1016.3 0.0
30/05:00am NE 7 9 - - - - - - - 7.0 1016.3 0.0
30/04:30am NE 7 9 - - - - - - - 7.3 1016.6 0.0
30/04:00am NE 7 9 - - - - - - - 7.5 1017.0 0.0
30/03:30am NE 9 11 - - - - - - - 6.8 1017.2 0.0
30/03:00am NE 8 9 - - - - - - - 7.1 1017.6 0.0
30/02:30am NE 8 10 - - - - - - - 6.0 1017.7 0.0
30/02:00am ENE 5 9 - - - - - - - 7.5 1018.1 0.0
30/01:30am NE 7 9 - - - - - - - 4.7 1018.6 0.0
30/01:00am NE 6 7 - - - - - - - 2.5 1018.9 0.0
30/12:30am NNW 3 4 - - - - - - - 2.3 1019.3 0.0
30/12:00am W 5 6 - - - - - - - 1.8 1019.4 0.0
 
Date/Time
EST
Wind Sea
Height
m
Swell Vis
km
Cloud Weather Temp
°C
Press
MSL
hPa
Rain since
9am
mm
Dir  Spd
kts
Gust
kts
Height
m
Period
s
Dir
29/11:30pm WNW 5 5 - - - - - - - 1.8 1019.3 0.0
29/11:00pm W 4 5 - - - - - - - 3.8 1019.4 0.0
29/10:30pm WNW 3 4 - - - - - - - 3.9 1019.5 0.0
29/10:00pm WNW 1 4 - - - - - - - 3.4 1019.5 0.0
29/09:30pm NW 3 5 - - - - - - - 3.1 1019.9 0.0
29/09:00pm WNW 3 4 - - - - - - - 4.2 1020.2 0.0
29/08:30pm NE 4 6 - - - - - - - 3.3 1020.5 0.0
29/08:00pm CALM 0 2 - - - - - - - 4.1 1020.7 0.0
29/07:30pm NE 4 5 - - - - - - - 6.5 1020.9 0.0
29/07:00pm NNE 4 5 - - - - - - - 7.2 1021.1 0.0
29/06:30pm N 4 4 - - - - - - - 6.8 1021.0 0.0
29/06:00pm NNE 3 3 - - - - - - - 9.3 1021.0 0.0
29/05:30pm NE 3 5 - - - - - - - 9.3 1021.0 0.0
29/05:00pm E 4 4 - - - - - - - 13.0 1021.0 0.0
29/04:30pm E 4 5 - - - - - - - 15.6 1021.0 0.0
29/04:00pm E 5 7 - - - - - - - 16.9 1021.0 0.0
29/03:30pm SE 7 8 - - - - - - - 17.6 1021.1 0.0
29/03:00pm SE 5 6 - - - - - - - 18.7 1021.1 0.0
29/02:30pm S 4 6 - - - - - - - 19.2 1021.1 0.0
29/02:00pm SW 1 5 - - - - - - - 19.7 1021.4 0.0
29/01:30pm SW 3 4 - - - - - - - 19.3 1021.6 0.0
29/01:00pm W 3 4 - - - - - - - 19.3 1022.1 0.0
29/12:30pm W 3 5 - - - - - - - 18.8 1022.5 0.0
29/12:00pm SW 3 5 - - - - - - - 17.8 1023.0 0.0
29/11:30am SW 4 5 - - - - - - - 16.4 1023.4 0.0
29/11:00am SSE 4 5 - - - - - - - 15.1 1024.1 0.0
29/10:30am SSW 5 6 - - - - - - - 14.2 1024.4 0.0
29/10:00am CALM 0 4 - - - - - - - 12.8 1024.4 0.0
29/09:30am CALM 0 0 - - - - - - - 10.2 1024.7 0.0
29/09:00am CALM 0 0 - - - - - - - 8.1 1024.7 0.0
29/08:30am CALM 0 0 - - - - - - - 4.5 1024.6 0.0
29/08:00am NNE 4 5 - - - - - - - 2.5 1024.6 0.0
29/07:30am NNW 4 9 - - - - - - - 4.3 1024.5 0.0
29/07:00am N 5 6 - - - - - - - 1.4 1024.4 0.0
29/06:30am N 4 5 - - - - - - - 0.6 1024.4 0.0
29/06:00am CALM 0 0 - - - - - - - 0.7 1024.4 0.0
29/05:30am CALM 0 0 - - - - - - - 1.3 1024.3 0.0
29/05:00am N 2 4 - - - - - - - 1.1 1024.3 0.0
29/04:30am CALM 0 0 - - - - - - - 1.7 1024.4 0.0
29/04:00am N 3 4 - - - - - - - 2.8 1024.4 0.0
29/03:30am NW 4 5 - - - - - - - 3.2 1024.5 0.0
29/03:00am W 4 5 - - - - - - - 3.6 1024.9 0.0
29/02:30am W 5 7 - - - - - - - 5.5 1024.9 0.0
29/02:00am WNW 5 5 - - - - - - - 4.0 1024.8 0.0
29/01:30am WNW 4 5 - - - - - - - 5.6 1024.8 0.0
29/01:00am WNW 4 5 - - - - - - - 3.5 1024.9 0.0
29/12:30am NNE 5 6 - - - - - - - 4.2 1024.9 0.0
29/12:00am N 4 4 - - - - - - - 5.1 1025.2 0.0
 
Date/Time
EST
Wind Sea
Height
m
Swell Vis
km
Cloud Weather Temp
°C
Press
MSL
hPa
Rain since
9am
mm
Dir  Spd
kts
Gust
kts
Height
m
Period
s
Dir
28/11:30pm N 4 5 - - - - - - - 5.3 1025.5 0.0
28/11:00pm N 2 3 - - - - - - - 6.4 1025.7 0.0
28/10:30pm NNE 4 5 - - - - - - - 6.6 1025.9 0.0
28/10:00pm NE 7 8 - - - - - - - 6.7 1026.0 0.0
28/09:30pm NNE 6 6 - - - - - - - 6.9 1025.9 0.0
28/09:00pm NNE 6 7 - - - - - - - 7.0 1026.0 0.0
28/08:30pm NNE 5 5 - - - - - - - 7.6 1026.0 0.0
28/08:00pm N 7 7 - - - - - - - 7.4 1026.0 0.0
28/07:30pm N 4 4 - - - - - - - 8.3 1026.0 0.0
28/07:00pm NNE 5 6 - - - - - - - 8.3 1025.8 0.0
28/06:30pm NE 5 7 - - - - - - - 10.4 1025.6 0.0
28/06:00pm NNE 3 6 - - - - - - - 11.0 1025.3 0.0
28/05:30pm NNE 4 6 - - - - - - - 12.1 1025.2 0.0
28/05:00pm WSW 6 6 - - - - - - - 14.7 1025.1 0.0
28/04:30pm SW 5 6 - - - - - - - 17.4 1025.2 0.0
28/04:00pm WSW 6 7 - - - - - - - 18.9 1025.1 0.0
28/03:30pm W 6 8 - - - - - - - 19.8 1025.2 0.0
28/03:00pm WSW 7 9 - - - - - - - 20.1 1025.0 0.0
28/02:30pm WSW 8 9 - - - - - - - 20.2 1024.8 0.0
28/02:00pm WSW 8 10 - - - - - - - 20.3 1024.9 0.0
28/01:30pm W 9 11 - - - - - - - 20.3 1024.9 0.0
28/01:00pm W 9 12 - - - - - - - 20.1 1025.1 0.0
28/12:30pm W 11 14 - - - - - - - 19.7 1025.4 0.0
28/12:00pm W 11 15 - - - - - - - 19.3 1025.7 0.0
28/11:30am W 10 13 - - - - - - - 18.9 1026.1 0.0
28/11:00am W 6 8 - - - - - - - 18.7 1026.3 0.0
28/10:30am WNW 5 7 - - - - - - - 18.0 1026.4 0.0
28/10:00am N 4 7 - - - - - - - 17.2 1026.3 0.0
28/09:30am NE 3 5 - - - - - - - 15.5 1026.3 0.0
28/09:00am NE 5 6 - - - - - - - 12.6 1026.3 0.0
28/08:30am N 3 4 - - - - - - - 9.8 1025.9 0.0
28/08:00am N 4 6 - - - - - - - 5.9 1025.7 0.0
28/07:30am NNE 5 6 - - - - - - - 4.0 1025.6 0.0
28/07:00am NNW 4 5 - - - - - - - 4.0 1025.4 0.0
28/06:30am N 4 5 - - - - - - - 5.0 1025.2 0.0
28/06:00am N 5 6 - - - - - - - 3.7 1025.0 0.0
28/05:30am SW 4 7 - - - - - - - 7.0 1025.0 0.0
28/05:00am WNW 3 4 - - - - - - - 5.3 1024.7 0.0
28/04:30am WNW 5 7 - - - - - - - 6.9 1024.6 0.0
28/04:00am WNW 8 9 - - - - - - - 5.9 1024.4 0.0
28/03:30am WNW 7 8 - - - - - - - 4.3 1024.4 0.0
28/03:00am NW 7 8 - - - - - - - 6.5 1024.7 0.0
28/02:30am NNW 5 6 - - - - - - - 5.6 1024.8 0.0
28/02:00am NNW 6 7 - - - - - - - 7.7 1024.8 0.0
28/01:30am WNW 7 8 - - - - - - - 6.3 1024.7 0.0
28/01:00am WNW 7 8 - - - - - - - 3.4 1024.6 0.0
28/12:30am N 6 6 - - - - - - - 2.7 1024.6 0.0
28/12:00am N 6 7 - - - - - - - 2.5 1025.0 0.0
 
Date/Time
EST
Wind Sea
Height
m
Swell Vis
km
Cloud Weather Temp
°C
Press
MSL
hPa
Rain since
9am
mm
Dir  Spd
kts
Gust
kts
Height
m
Period
s
Dir
27/11:30pm NNE 7 8 - - - - - - - 3.5 1024.9 0.0
27/11:00pm NNE 5 6 - - - - - - - 3.5 1024.9 0.0
27/10:30pm NNE 6 7 - - - - - - - 3.7 1025.1 0.0
27/10:00pm N 4 5 - - - - - - - 2.8 1025.1 0.0
27/09:30pm N 1 6 - - - - - - - 4.2 1025.0 0.0
27/09:00pm N 3 4 - - - - - - - 4.2 1024.9 0.0
27/08:30pm NNE 5 6 - - - - - - - 4.0 1024.9 0.0
27/08:00pm NNE 4 5 - - - - - - - 5.5 1025.0 0.0
27/07:30pm NNE 3 5 - - - - - - - 5.8 1024.8 0.0
27/07:00pm NNW 3 5 - - - - - - - 6.1 1024.8 0.0
27/06:30pm N 6 7 - - - - - - - 6.8 1024.6 0.0
27/06:00pm NNW 4 5 - - - - - - - 8.1 1024.5 0.0
27/05:30pm WNW 5 6 - - - - - - - 10.9 1024.3 0.0
27/05:00pm W 8 10 - - - - - - - 12.9 1024.2 0.0
27/04:30pm W 6 7 - - - - - - - 14.4 1024.1 0.0
27/04:00pm WSW 8 10 - - - - - - - 15.9 1024.2 0.0

Other formats

Comma delimited format used in spreadsheet applications
http://www.bom.gov.au/fwo/IDV60701/IDV60701.95890.axf

JavaScript Object Notation format (JSON) in row-major order
http://www.bom.gov.au/fwo/IDV60701/IDV60701.95890.json

Data quality

Most of these data are generated automatically and are frequently updated. Quality checks on data are not normally performed. It is possible for incorrect values to appear. Refer to information at About Latest Weather Observations and please check the disclaimer before using these data.